• Join FlightAware (Why Join?)
  • Login
  • US Flag 
06:03PM EDT


 

Airport Tracker/Info


-or-


 

Live Flight TrackerFlight Track Log ✈ SWA1259 ✈ 05-May-2013 ✈ KMDW - KLAS

Flight Track Log - Related Links

Times and Time Zones

All times are in EDT time to prevent confusion due to time zone crossing. See the SWA1259 flight status page for this flight to view local times or setup timezone preferences in your user account.

Time Position Orientation Groundspeed Altitude Reporting Facility
EDT Latitude Longitude Course Direction KTS MPH feet Rate Location/Type
11:53AM 41.7833 -87.8500 263° West 238 274 3,000  Level Chicago TRACON
11:54AM 41.7667 -87.9333 255° West 234 269 3,000  Level Chicago TRACON
11:55AM 41.7500 -88.0167 255° West 239 275 3,000  Level Chicago TRACON
11:56AM 41.7500 -88.1167 270° West 238 274 3,100 420 Climbing Chicago TRACON
11:57AM 41.7686 -88.2117 285° West 266 306 3,900 1,620 Climbing Chicago Center
11:58AM 41.7295 -88.6287 263° West  Level FlightAware Approximate
11:58AM 41.7703 -88.3167 271° West 277 319 6,700  Level Chicago Center
11:59AM 41.7656 -88.4275 267° West 299 344 10,300 2,940 Climbing Chicago Center
12:00PM 41.7789 -88.5681 277° West 318 366 12,800 1,680 Climbing Chicago Center
12:01PM 41.7942 -88.7064 278° West 373 429 13,800 960 Climbing Chicago Center
12:02PM 41.8100 -88.8431 279° West 375 432 14,900 1,380 Climbing Chicago Center
12:03PM 41.8261 -88.9864 279° West 387 445 16,700 1,860 Climbing Chicago Center
12:04PM 41.8425 -89.1347 278° West 400 460 18,800 2,160 Climbing Chicago Center
12:05PM 41.8611 -89.2872 279° West 415 478 21,200 2,460 Climbing Chicago Center
12:06PM 41.8475 -89.4750 265° West 422 486 24,000 2,220 Climbing Chicago Center
12:07PM 41.8364 -89.6336 265° West 429 494 25,900 1,740 Climbing Chicago Center
12:08PM 41.8247 -89.7992 265° West 446 513 27,600 1,620 Climbing Chicago Center
12:09PM 41.8128 -89.9731 265° West 456 525 29,300 1,560 Climbing Chicago Center
12:10PM 41.7989 -90.1503 264° West 462 532 30,800 1,560 Climbing Chicago Center
12:11PM 41.7828 -90.3283 263° West 480 552 32,600 1,560 Climbing Chicago Center
12:12PM 41.7675 -90.5006 263° West 472 543 34,100 1,440 Climbing Chicago Center
12:13PM 41.7514 -90.6969 264° West 463 533 35,600 960 Climbing Chicago Center
12:14PM 41.7367 -90.8692 264° West 466 536 36,100 780 Climbing Chicago Center
12:16PM 41.7214 -91.0414 263° West 468 539 37,300 900 Climbing Chicago Center
12:17PM 41.7056 -91.2139 263° West 469 540 38,000 300 Climbing Chicago Center
12:18PM 41.6908 -91.3836 263° West 463 533 38,000  Level Chicago Center
12:19PM 41.6739 -91.5531 262° West 463 533 38,000  Level Chicago Center
12:20PM 41.6550 -91.7556 263° West 460 529 38,000  Level Chicago Center
12:21PM 41.6389 -91.9225 263° West 457 526 38,000  Level Chicago Center
12:22PM 41.6231 -92.0892 263° West 455 524 38,000  Level Chicago Center
12:23PM 41.6053 -92.2528 262° West 451 519 38,000  Level Chicago Center
12:24PM 41.5897 -92.4186 263° West 453 521 38,000  Level Chicago Center
12:25PM 41.5689 -92.6156 262° West 450 518 38,000  Level Chicago Center
12:25PM 41.5631 -92.6661 261° West 450 518 38,000  Level Minneapolis Center
12:26PM 41.5458 -92.8306 262° West 451 519 38,000  Level Minneapolis Center
12:27PM 41.5292 -92.9933 262° West 450 518 38,000  Level Minneapolis Center
12:28PM 41.5078 -93.1900 262° West 451 519 38,000  Level Minneapolis Center
12:29PM 41.4897 -93.3519 262° West 448 516 38,000  Level Minneapolis Center
12:30PM 41.4725 -93.5136 262° West 446 513 38,000  Level Minneapolis Center
12:31PM 41.4553 -93.6706 262° West 438 504 38,000  Level Minneapolis Center
12:32PM 41.4364 -93.8300 261° West 440 506 38,000  Level Minneapolis Center
12:33PM 41.4150 -94.0239 262° West 444 511 38,000  Level Minneapolis Center
12:34PM 41.3964 -94.1842 261° West 445 512 38,000  Level Minneapolis Center
12:36PM 41.3767 -94.3594 262° West 441 507 38,000  Level Minneapolis Center
12:37PM 41.3561 -94.5183 260° West 437 503 38,000  Level Minneapolis Center
12:38PM 41.3411 -94.6450 261° West 435 501 38,000  Level Minneapolis Center
12:39PM 41.3181 -94.8331 261° West 431 496 38,000  Level Minneapolis Center
12:40PM 41.2981 -94.9886 260° West 428 493 38,000  Level Minneapolis Center
12:41PM 41.2781 -95.1431 260° West 425 489 38,000  Level Minneapolis Center
12:42PM 41.2586 -95.2975 261° West 423 487 38,000  Level Minneapolis Center
12:43PM 41.2336 -95.4844 260° West 425 489 38,000  Level Minneapolis Center
12:44PM 41.2139 -95.6386 260° West 426 490 38,000  Level Minneapolis Center
12:45PM 41.1939 -95.7933 260° West 426 490 38,000  Level Minneapolis Center
12:46PM 41.1728 -95.9511 260° West 431 496 38,000  Level Minneapolis Center
12:47PM 41.1506 -96.1097 260° West 434 499 38,000  Level Minneapolis Center
12:48PM 41.1306 -96.2686 261° West 437 503 38,000  Level Minneapolis Center
12:49PM 41.1061 -96.4375 259° West 436 502 38,000  Level Minneapolis Center
12:50PM 41.0839 -96.5933 259° West 432 497 38,000  Level Minneapolis Center
12:51PM 41.0622 -96.7494 260° West 430 495 38,000  Level Minneapolis Center
12:52PM 41.0364 -96.9364 260° West 430 495 38,000  Level Minneapolis Center
12:53PM 41.0144 -97.0908 259° West 427 491 38,000  Level Minneapolis Center
12:54PM 40.9906 -97.2447 258° West 427 491 38,000  Level Minneapolis Center
12:55PM 40.9706 -97.3872 260° West 425 489 38,000  Level Minneapolis Center
12:56PM 40.9425 -97.5711 259° West 424 488 38,000  Level Minneapolis Center
12:57PM 40.9200 -97.7267 259° West 428 493 38,000  Level Minneapolis Center
12:58PM 40.8969 -97.8800 259° West 426 490 38,000  Level Minneapolis Center
12:59PM 40.8728 -98.0331 258° West 425 489 38,000  Level Minneapolis Center
01:00PM 40.8494 -98.1856 259° West 423 487 38,000  Level Minneapolis Center
01:01PM 40.8261 -98.3361 258° West 419 482 38,000  Level Minneapolis Center
01:02PM 40.8008 -98.4925 258° West 418 481 38,000  Level Minneapolis Center
01:03PM 40.7781 -98.6422 259° West 416 479 38,000  Level Minneapolis Center
01:04PM 40.7494 -98.8200 258° West 415 478 38,000  Level Minneapolis Center
01:05PM 40.7264 -98.9694 259° West 416 479 38,000  Level Minneapolis Center
01:07PM 40.7306 -99.1217 272° West 415 478 38,000  Level Minneapolis Center
01:07PM 40.7403 -99.2431 276° West 415 478 38,000  Level Denver Center
01:08PM 40.7539 -99.3936 277° West 413 475 38,000  Level Denver Center
01:09PM 40.7706 -99.5761 277° West 415 478 38,000  Level Denver Center
01:11PM 40.7831 -99.7278 276° West 415 478 38,000  Level Denver Center
01:12PM 40.7961 -99.8775 277° West 414 476 38,000  Level Denver Center
01:13PM 40.8133 -100.0686 277° West 412 474 38,000  Level Denver Center
01:14PM 40.8250 -100.2128 276° West 412 474 38,000  Level Denver Center
01:15PM 40.8378 -100.3817 276° West 414 476 38,000  Level Denver Center
01:16PM 40.8150 -100.5250 258° West 422 486 38,000  Level Denver Center
01:17PM 40.7794 -100.6936 254° West 420 483 38,000  Level Denver Center
01:18PM 40.7492 -100.8419 255° West 421 484 38,000  Level Denver Center
01:19PM 40.7203 -100.9825 255° West 414 476 38,000  Level Denver Center
01:20PM 40.6867 -101.1458 255° West 413 475 38,000  Level Denver Center
01:21PM 40.6578 -101.2825 254° West 407 468 38,000  Level Denver Center
01:22PM 40.6231 -101.4400 254° West 401 461 38,000  Level Denver Center
01:23PM 40.5950 -101.5744 255° West 399 459 38,000  Level Denver Center
01:24PM 40.5614 -101.7294 254° West 396 456 38,000  Level Denver Center
01:25PM 40.5319 -101.8636 254° West 397 457 38,000  Level Denver Center
01:26PM 40.5031 -101.9967 254° West 395 455 38,000  Level Denver Center
01:27PM 40.4692 -102.1514 254° West 395 455 38,000  Level Denver Center
01:28PM 40.4400 -102.2842 254° West 396 456 38,000  Level Denver Center
01:29PM 40.4056 -102.4394 254° West 397 457 38,000  Level Denver Center
01:30PM 40.3756 -102.5728 254° West 399 459 38,000  Level Denver Center
01:31PM 40.3439 -102.7164 254° West 398 458 38,000  Level Denver Center
01:32PM 40.3103 -102.8589 253° West 404 465 38,000  Level Denver Center
01:33PM 40.2725 -103.0258 254° West 405 466 38,000  Level Denver Center
01:35PM 40.2408 -103.1656 254° West 400 460 38,000  Level Denver Center
01:36PM 40.2092 -103.3064 254° West 400 460 38,000  Level Denver Center
01:37PM 40.1747 -103.4469 252° West 402 463 38,000  Level Denver Center
01:38PM 40.1422 -103.5858 253° West 398 458 38,000  Level Denver Center
01:39PM 40.1092 -103.7233 253° West 395 455 38,000  Level Denver Center
01:40PM 40.0769 -103.8636 253° West 394 453 38,000  Level Denver Center
01:41PM 40.0397 -104.0244 253° West 395 455 38,000  Level Denver Center
01:42PM 40.0011 -104.1850 253° West 394 453 38,000  Level Denver Center
01:43PM 39.9683 -104.3211 253° West 395 455 38,000  Level Denver Center
01:44PM 39.9342 -104.4567 252° West 390 449 38,000  Level Denver Center
01:45PM 39.9017 -104.5928 253° West 391 450 38,000  Level Denver Center
01:46PM 39.8619 -104.7483 252° West 388 447 38,000  Level Denver Center
01:47PM 39.8278 -104.8844 252° West 396 456 38,000  Level Denver Center
01:48PM 39.7944 -105.0194 252° West 393 452 38,000  Level Denver Center
01:49PM 39.7600 -105.1547 252° West 392 451 38,000  Level Denver Center
01:50PM 39.7269 -105.2869 252° West 384 442 38,000  Level Denver Center
01:51PM 39.6858 -105.4472 252° West 389 448 38,000  Level Denver Center
01:52PM 39.6506 -105.5825 251° West 394 453 38,000  Level Denver Center
01:53PM 39.6161 -105.7172 252° West 392 451 38,000  Level Denver Center
01:54PM 39.5822 -105.8511 252° West 385 443 38,000  Level Denver Center
01:55PM 39.5481 -105.9850 252° West 388 447 38,000  Level Denver Center
01:56PM 39.5125 -106.1200 251° West 391 450 38,000  Level Denver Center
01:57PM 39.4750 -106.2661 252° West 394 453 38,000  Level Denver Center
01:58PM 39.4400 -106.3986 251° West 391 450 38,000  Level Denver Center
02:00PM 39.4022 -106.5428 251° West 391 450 38,000  Level Denver Center
02:01PM 39.3681 -106.6697 251° West 391 450 38,000  Level Denver Center
02:02PM 39.3275 -106.8208 251° West 397 457 38,000  Level Denver Center
02:03PM 39.2936 -106.9492 251° West 394 453 38,000  Level Denver Center
02:04PM 39.2525 -107.0978 250° West 394 453 38,000  Level Denver Center
02:05PM 39.2175 -107.2261 251° West 396 456 38,000  Level Denver Center
02:06PM 39.1764 -107.3750 250° West 395 455 38,000  Level Denver Center
02:07PM 39.1408 -107.5033 250° West 395 455 38,000  Level Denver Center
02:08PM 39.1044 -107.6317 250° West 397 457 38,000  Level Denver Center
02:09PM 39.0636 -107.7811 251° West 396 456 38,000  Level Denver Center
02:10PM 39.0278 -107.9111 251° West 399 459 38,000  Level Denver Center
02:11PM 38.9789 -108.0828 250° West 400 460 38,000  Level Denver Center
02:12PM 38.9364 -108.2322 250° West 399 459 38,000  Level Denver Center
02:13PM 38.9006 -108.3606 250° West 395 455 38,000  Level Denver Center
02:14PM 38.8636 -108.4878 250° West 395 455 38,000  Level Denver Center
02:15PM 38.8217 -108.6358 250° West 396 456 38,000  Level Denver Center
02:16PM 38.7853 -108.7617 250° West 393 452 38,000  Level Denver Center
02:17PM 38.7414 -108.9108 249° West 398 458 38,000  Level Denver Center
02:18PM 38.7042 -109.0375 249° West 395 455 38,000  Level Denver Center
02:19PM 38.6611 -109.1875 250° West 399 459 38,000  Level Denver Center
02:20PM 38.6236 -109.3139 249° West 394 453 38,000  Level Denver Center
02:21PM 38.5792 -109.4628 249° West 397 457 38,000  Level Denver Center
02:22PM 38.5481 -109.5672 249° West 394 453 38,000  Level Denver Center
02:24PM 38.4975 -109.7356 249° West 398 458 38,000  Level Denver Center
02:25PM 38.4600 -109.8600 249° West 394 453 38,000  Level Denver Center
02:26PM 38.4217 -109.9858 249° West 396 456 38,000  Level Denver Center
02:27PM 38.3789 -110.1356 250° West 400 460 38,000  Level Salt Lake Center
02:28PM 38.3394 -110.2619 248° West 401 461 38,000  Level Salt Lake Center
02:29PM 38.3006 -110.3889 249° West 402 463 38,000  Level Salt Lake Center
02:30PM 38.2467 -110.5328 245° Southwest 402 463 38,000  Level Salt Lake Center
02:31PM 38.1822 -110.6675 239° Southwest 401 461 38,000 -240 Level Denver Center
02:32PM 38.1294 -110.7861 241° Southwest 401 461 37,500 -660 Descending Denver Center
02:33PM 38.0858 -110.8825 240° Southwest 396 456 36,700 -960 Descending Denver Center
02:34PM 38.0194 -111.0303 240° Southwest 396 456 35,600 -1,080 Descending Denver Center
02:35PM 37.9667 -111.1514 241° Southwest 394 453 34,600 -1,020 Descending Salt Lake Center
02:36PM 37.9122 -111.2711 240° Southwest 393 452 33,700 -960 Descending Salt Lake Center
02:37PM 37.8567 -111.3925 240° Southwest 397 457 32,700 -840 Descending Salt Lake Center
02:38PM 37.8019 -111.5147 240° Southwest 399 459 32,000 -360 Descending Salt Lake Center
02:39PM 37.7333 -111.6650 240° Southwest 410 472 32,000  Level Salt Lake Center
02:40PM 37.6744 -111.7911 239° Southwest 415 478 32,000  Level Salt Lake Center
02:41PM 37.6150 -111.9172 239° Southwest 417 480 32,000  Level Salt Lake Center
02:42PM 37.5567 -112.0422 240° Southwest 415 478 32,000  Level Salt Lake Center
02:43PM 37.4992 -112.1661 240° Southwest 412 474 32,000 -120 Level Salt Lake Center
02:44PM 37.4406 -112.2919 240° Southwest 412 474 31,800 -660 Descending Salt Lake Center
02:45PM 37.3817 -112.4167 239° Southwest 413 475 30,700 -1,200 Descending Salt Lake Center
02:45PM 37.3575 -112.4650 238° Southwest 405 466 30,300 -1,080 Descending Los Angeles Center
02:46PM 37.2994 -112.5858 239° Southwest 402 463 29,300 -960 Descending Los Angeles Center
02:47PM 37.2656 -112.6589 240° Southwest 403 464 28,700 -780 Descending Salt Lake Center
02:48PM 37.1967 -112.8022 239° Southwest 398 458 28,000 -840 Descending Salt Lake Center
02:49PM 37.1408 -112.9211 240° Southwest 395 455 27,000 -1,020 Descending Salt Lake Center
02:50PM 37.0836 -113.0389 239° Southwest 394 453 26,000 -900 Descending Salt Lake Center
02:51PM 37.0719 -113.0614 237° Southwest 393 452 25,800 -960 Descending Los Angeles Center
02:52PM 37.0169 -113.1772 239° Southwest 388 447 24,700 -900 Descending Los Angeles Center
02:53PM 36.9514 -113.3136 239° Southwest 382 440 24,000 -360 Descending Los Angeles Center
02:54PM 36.8956 -113.4275 239° Southwest 383 441 24,000 -420 Level Los Angeles Center
02:55PM 36.8414 -113.5408 239° Southwest 380 437 23,200 -900 Descending Los Angeles Center
02:56PM 36.7853 -113.6564 239° Southwest 387 445 22,200 -1,020 Descending Los Angeles Center
02:57PM 36.7286 -113.7689 238° Southwest 385 443 21,200 -1,020 Descending Los Angeles Center
02:58PM 36.6742 -113.8817 239° Southwest 381 438 20,200 -1,260 Descending Los Angeles Center
02:59PM 36.6089 -114.0136 238° Southwest 375 432 18,700 -1,860 Descending Los Angeles Center
03:00PM 36.5567 -114.1211 239° Southwest 368 423 16,400 -1,920 Descending Los Angeles Center
03:02PM 36.4658 -114.3208 241° Southwest 338 389 12,900 -1,440 Descending Los Angeles Center
03:03PM 36.4150 -114.4325 241° Southwest 315 362 12,100 -840 Descending Los Angeles Center
03:04PM 36.3703 -114.5178 237° Southwest 300 345 11,200 -960 Descending Los Angeles Center
03:05PM 36.3231 -114.6039 236° Southwest 300 345 10,200 -720 Descending Los Angeles Center
03:06PM 36.2786 -114.6861 236° Southwest 291 335 9,800 -840 Descending Los Angeles Center
03:07PM 36.2389 -114.7614 237° Southwest 269 310 8,500 -960 Descending Los Angeles Center
03:08PM 36.2000 -114.8328 236° Southwest 254 292 7,900 -720 Descending Los Angeles Center
03:09PM 36.1650 -114.8961 236° Southwest 233 268 7,100 -1,020 Descending Los Angeles Center
03:10PM 36.1308 -114.9711 241° Southwest 215 247 5,800 -1,140 Descending Los Angeles Center
03:11PM 36.1367 -115.0497 275° West 179 206 4,700 -1,080 Descending Los Angeles Center
03:12PM 36.1378 -115.0944 272° West 141 162 3,600 -960 Descending Los Angeles Center
03:13PM 36.1272 -115.1400 254° West 158 182 2,800 -720 Descending Los Angeles Center
03:14PM 36.0872 -115.1586 201° Southwest 149 171 2,200 -600 Descending Los Angeles Center
03:16PM 36.0801 -115.1523 219° Southwest  Level Estimated